createdAt,value
2023-02-22T00:02:16.816Z,37.85
2023-02-22T00:04:43.636Z,40.78
2023-02-22T00:07:16.818Z,36.13
2023-02-22T00:09:43.575Z,37.75
2023-02-22T00:12:16.822Z,34.90
2023-02-22T00:14:43.769Z,36.13
2023-02-22T00:17:19.805Z,34.33
2023-02-22T00:19:48.874Z,36.63
2023-02-22T00:22:26.055Z,33.45
2023-02-22T00:24:52.836Z,35.72
2023-02-22T00:27:20.842Z,32.28
2023-02-22T00:29:53.810Z,34.50
2023-02-22T00:32:26.855Z,32.45
2023-02-22T00:34:54.599Z,31.50
2023-02-22T00:37:21.745Z,31.90
2023-02-22T00:39:56.823Z,33.00
2023-02-22T00:42:23.640Z,30.45
2023-02-22T00:44:56.965Z,33.35
2023-02-22T00:47:23.732Z,36.72
2023-02-22T00:49:50.459Z,42.58
2023-02-22T00:52:23.828Z,41.85
2023-02-22T00:54:57.144Z,41.17
2023-02-22T00:57:24.773Z,38.28
2023-02-22T00:59:51.612Z,32.25
2023-02-22T01:02:24.972Z,32.75
2023-02-22T01:04:51.849Z,34.65
2023-02-22T01:07:25.842Z,35.25
2023-02-22T01:09:53.680Z,37.95
2023-02-22T01:12:27.911Z,38.40
2023-02-22T01:14:56.998Z,37.55
2023-02-22T01:17:25.228Z,37.95
2023-02-22T01:19:58.958Z,38.38
2023-02-22T01:22:31.928Z,40.47
2023-02-22T01:24:58.676Z,40.25
2023-02-22T01:27:31.944Z,39.95
2023-02-22T01:29:58.831Z,42.85
2023-02-22T01:32:25.629Z,40.63
2023-02-22T01:35:02.934Z,41.05
2023-02-22T01:37:29.865Z,39.85
2023-02-22T01:40:02.931Z,41.85
2023-02-22T01:42:34.499Z,37.45
2023-02-22T01:45:42.022Z,36.80
2023-02-22T01:48:39.015Z,33.88
2023-02-22T01:51:20.849Z,33.45
2023-02-22T01:54:14.962Z,32.03
2023-02-22T01:56:50.411Z,33.85
2023-02-22T01:59:24.951Z,31.13
2023-02-22T02:01:51.804Z,33.53
2023-02-22T02:04:31.952Z,30.27
2023-02-22T02:07:02.779Z,31.58
2023-02-22T02:10:02.955Z,29.13
2023-02-22T02:12:33.995Z,32.67
2023-02-22T02:15:25.969Z,30.17
2023-02-22T02:17:56.693Z,33.15
2023-02-22T02:20:33.034Z,31.38
2023-02-22T02:23:29.690Z,30.85
2023-02-22T02:26:33.986Z,36.15
2023-02-22T02:29:22.635Z,32.70
2023-02-22T02:32:18.089Z,35.70
2023-02-22T02:35:21.592Z,37.22
2023-02-22T02:38:08.000Z,33.67
2023-02-22T02:40:49.191Z,41.65
2023-02-22T02:43:23.020Z,38.78
2023-02-22T02:46:01.888Z,38.40
2023-02-22T02:48:37.063Z,36.92
2023-02-22T02:51:08.013Z,37.58
2023-02-22T02:53:48.043Z,37.88
2023-02-22T02:56:15.156Z,34.72
2023-02-22T02:58:56.073Z,37.70
2023-02-22T03:01:29.020Z,35.22
2023-02-22T03:04:44.064Z,35.50
2023-02-22T03:07:31.794Z,33.60
2023-02-22T03:10:35.081Z,34.67
2023-02-22T03:13:14.084Z,35.20
2023-02-22T03:15:57.062Z,37.30
2023-02-22T03:18:36.201Z,35.20
2023-02-22T03:21:31.514Z,33.28
2023-02-22T03:24:13.083Z,33.58
2023-02-22T03:27:09.463Z,34.40
2023-02-22T03:29:49.051Z,36.95
2023-02-22T03:32:25.577Z,37.45
2023-02-22T03:35:05.154Z,31.10
2023-02-22T03:37:37.594Z,32.35
2023-02-22T03:40:23.080Z,35.42
2023-02-22T03:43:02.134Z,37.35
2023-02-22T03:45:37.141Z,37.13
2023-02-22T03:48:24.160Z,44.28
2023-02-22T03:50:58.157Z,42.45
2023-02-22T03:53:32.182Z,35.17
2023-02-22T03:55:59.944Z,35.10
2023-02-22T03:58:56.185Z,33.78
2023-02-22T04:01:30.212Z,31.98
2023-02-22T04:03:57.064Z,35.15
2023-02-22T04:06:30.187Z,34.33
2023-02-22T04:08:57.095Z,31.85
2023-02-22T04:11:30.161Z,30.15
2023-02-22T04:13:58.352Z,33.42
2023-02-22T04:16:32.143Z,32.03
2023-02-22T04:18:58.919Z,35.85
2023-02-22T04:21:32.184Z,34.42
2023-02-22T04:23:59.526Z,39.47
2023-02-22T04:26:33.166Z,38.00
2023-02-22T04:29:00.004Z,39.38
2023-02-22T04:31:33.210Z,37.78
2023-02-22T04:34:00.830Z,39.97
2023-02-22T04:36:34.212Z,38.47
2023-02-22T04:39:01.271Z,35.95
2023-02-22T04:41:35.276Z,36.00
2023-02-22T04:44:08.202Z,41.20
2023-02-22T04:46:34.981Z,36.30
2023-02-22T04:49:08.218Z,38.35
2023-02-22T04:51:36.787Z,37.58
2023-02-22T04:54:10.842Z,42.85
2023-02-22T04:56:42.980Z,32.38
2023-02-22T04:59:17.226Z,37.90
2023-02-22T05:01:44.210Z,36.13
2023-02-22T05:04:17.270Z,36.90
2023-02-22T05:06:44.052Z,36.97
2023-02-22T05:09:17.250Z,37.90
2023-02-22T05:11:43.981Z,36.25
2023-02-22T05:14:10.846Z,45.20
2023-02-22T05:16:44.280Z,38.25
2023-02-22T05:19:17.264Z,40.83
2023-02-22T05:21:50.265Z,42.15
2023-02-22T05:24:23.377Z,37.85
2023-02-22T05:26:58.286Z,35.30
2023-02-22T05:29:25.097Z,38.10
2023-02-22T05:31:58.420Z,29.95
2023-02-22T05:34:25.283Z,36.53
2023-02-22T05:36:58.277Z,34.92
2023-02-22T05:39:25.079Z,36.83
2023-02-22T05:42:05.306Z,34.55
2023-02-22T05:44:38.323Z,44.30
2023-02-22T05:47:11.286Z,39.50
2023-02-22T05:49:38.049Z,39.58
2023-02-22T05:52:11.328Z,43.20
2023-02-22T05:54:38.064Z,36.33
2023-02-22T05:57:11.346Z,38.15
2023-02-22T05:59:44.317Z,35.33
2023-02-22T06:02:17.354Z,37.97
2023-02-22T06:04:54.344Z,34.25
2023-02-22T06:07:21.123Z,35.90
2023-02-22T06:09:47.879Z,32.95
2023-02-22T06:12:21.401Z,36.25
2023-02-22T06:14:54.344Z,38.83
2023-02-22T06:17:27.413Z,32.95
2023-02-22T06:20:00.357Z,39.80
2023-02-22T06:22:27.339Z,37.25
2023-02-22T06:25:00.414Z,35.38
2023-02-22T06:27:37.481Z,32.72
2023-02-22T06:30:05.025Z,31.00
2023-02-22T06:32:42.338Z,35.38
2023-02-22T06:35:09.614Z,33.58
2023-02-22T06:37:43.387Z,31.83
2023-02-22T06:40:11.294Z,34.35
2023-02-22T06:42:45.380Z,33.05
2023-02-22T06:45:18.417Z,31.33
2023-02-22T06:47:52.419Z,30.50
2023-02-22T06:50:23.718Z,31.50
2023-02-22T06:52:57.390Z,29.27
2023-02-22T06:55:29.814Z,29.10
2023-02-22T07:00:37.485Z,26.92
2023-02-22T07:03:13.419Z,27.42
2023-02-22T07:05:40.291Z,32.08
2023-02-22T07:08:14.434Z,30.33
2023-02-22T07:10:41.338Z,34.63
2023-02-22T07:13:15.516Z,39.95
2023-02-22T07:15:49.460Z,41.78
2023-02-22T07:18:16.347Z,36.33
2023-02-22T07:20:56.479Z,36.35
2023-02-22T07:23:24.247Z,35.03
2023-02-22T07:25:57.482Z,32.42
2023-02-22T07:28:24.283Z,34.55
2023-02-22T07:30:57.480Z,28.25
2023-02-22T07:33:30.524Z,28.80
2023-02-22T07:35:57.269Z,25.73
2023-02-22T07:38:30.540Z,25.23
2023-02-22T07:40:57.907Z,27.05
2023-02-22T07:43:33.495Z,29.08
2023-02-22T07:46:09.494Z,33.28
2023-02-22T07:48:42.506Z,32.45
2023-02-22T07:51:10.144Z,34.80
2023-02-22T07:53:43.537Z,37.10
2023-02-22T07:56:10.373Z,36.28
2023-02-22T07:58:44.506Z,35.90
2023-02-22T08:01:17.890Z,39.58
2023-02-22T08:03:53.667Z,37.50
2023-02-22T08:06:27.616Z,31.00
2023-02-22T08:08:54.631Z,37.28
2023-02-22T08:11:28.583Z,37.10
2023-02-22T08:14:01.571Z,33.80
2023-02-22T08:16:28.445Z,32.35
2023-02-22T08:19:01.642Z,28.17
2023-02-22T08:21:35.529Z,33.28
2023-02-22T08:24:08.810Z,31.88
2023-02-22T08:26:35.645Z,32.50
2023-02-22T08:29:08.537Z,31.45
2023-02-22T08:31:35.471Z,31.15
2023-02-22T08:34:08.623Z,32.60
2023-02-22T08:36:41.588Z,30.85
2023-02-22T08:39:14.560Z,30.92
2023-02-22T08:41:47.658Z,30.63
2023-02-22T08:44:14.526Z,27.80
2023-02-22T08:46:47.571Z,25.30
2023-02-22T08:49:14.456Z,30.10
2023-02-22T08:51:47.622Z,23.35
2023-02-22T08:54:14.593Z,22.52
2023-02-22T08:56:47.629Z,23.05
2023-02-22T08:59:14.867Z,18.27
2023-02-22T09:01:48.675Z,19.98
2023-02-22T09:04:21.704Z,21.85
2023-02-22T09:06:51.782Z,25.23
2023-02-22T09:09:27.604Z,23.48
2023-02-22T09:11:54.507Z,23.88
2023-02-22T09:14:27.611Z,18.20
2023-02-22T09:16:54.680Z,19.67
2023-02-22T09:19:28.658Z,20.50
2023-02-22T09:21:57.452Z,21.40
2023-02-22T09:24:30.669Z,24.52
2023-02-22T09:27:06.662Z,28.27
2023-02-22T09:29:33.607Z,25.40
2023-02-22T09:32:10.863Z,22.52
2023-02-22T09:34:37.790Z,23.75
2023-02-22T09:37:15.690Z,22.42
2023-02-22T09:39:42.597Z,20.27
2023-02-22T09:42:23.662Z,23.85
2023-02-22T09:45:00.711Z,20.30
2023-02-22T09:47:46.743Z,24.13
2023-02-22T09:50:18.681Z,22.80
2023-02-22T09:53:06.668Z,23.23
2023-02-22T09:55:41.218Z,22.50
2023-02-22T09:58:44.746Z,22.55
2023-02-22T10:01:33.711Z,22.42
2023-02-22T10:04:29.740Z,22.67
2023-02-22T10:07:18.909Z,21.98
2023-02-22T10:09:54.736Z,22.98
2023-02-22T10:12:39.576Z,26.13
2023-02-22T10:15:38.752Z,26.70
2023-02-22T10:18:24.737Z,25.00
2023-02-22T10:20:57.316Z,29.27
2023-02-22T10:23:39.774Z,21.00
2023-02-22T10:26:12.466Z,23.38
2023-02-22T10:28:52.816Z,24.17
2023-02-22T10:31:34.957Z,27.00
2023-02-22T10:34:31.766Z,22.98
2023-02-22T10:37:38.367Z,25.35
2023-02-22T10:40:29.746Z,21.00
2023-02-22T10:42:57.436Z,19.73
2023-02-22T10:45:35.930Z,27.30
2023-02-22T10:48:17.832Z,28.98
2023-02-22T10:50:46.864Z,28.90
2023-02-22T10:53:17.765Z,26.30
2023-02-22T10:56:20.048Z,28.77
2023-02-22T10:59:06.815Z,28.20
2023-02-22T11:01:36.137Z,35.00
2023-02-22T11:04:19.837Z,33.85
2023-02-22T11:06:55.824Z,29.92
2023-02-22T11:09:29.808Z,28.33
2023-02-22T11:12:15.852Z,27.65
2023-02-22T11:14:48.812Z,29.40
2023-02-22T11:17:22.768Z,31.20
2023-02-22T11:19:56.802Z,28.00
2023-02-22T11:22:30.920Z,28.67
2023-02-22T11:25:09.828Z,30.20
2023-02-22T11:27:53.857Z,33.65
2023-02-22T11:30:37.972Z,32.15
2023-02-22T11:33:23.971Z,29.88
2023-02-22T11:36:00.846Z,28.08
2023-02-22T11:38:55.118Z,27.80
2023-02-22T11:41:41.887Z,30.17
2023-02-22T11:44:29.613Z,28.00
2023-02-22T11:47:13.860Z,26.35
2023-02-22T11:49:51.941Z,24.77
2023-02-22T11:52:34.863Z,23.02
2023-02-22T11:55:42.437Z,21.88
2023-02-22T11:58:42.902Z,19.05
2023-02-22T12:01:10.047Z,20.63
2023-02-22T12:03:50.941Z,23.55
2023-02-22T12:06:36.898Z,21.55
2023-02-22T12:09:26.983Z,21.58
2023-02-22T12:12:35.980Z,20.38
2023-02-22T12:15:17.208Z,23.95
2023-02-22T12:18:00.124Z,22.52
2023-02-22T12:20:47.714Z,23.25
2023-02-22T12:23:42.963Z,24.27
2023-02-22T12:26:13.324Z,21.63
2023-02-22T12:28:53.998Z,20.42
2023-02-22T12:31:41.972Z,17.40
2023-02-22T12:34:36.043Z,18.75
2023-02-22T12:37:24.322Z,21.40
2023-02-22T12:40:15.936Z,19.55
2023-02-22T12:43:13.924Z,21.42
2023-02-22T12:45:48.307Z,20.73
2023-02-22T12:48:37.031Z,22.27
2023-02-22T12:51:39.422Z,22.23
2023-02-22T12:54:31.960Z,21.23
2023-02-22T12:57:23.984Z,16.17
2023-02-22T12:59:56.336Z,21.08
2023-02-22T13:02:38.992Z,23.08
2023-02-22T13:05:13.145Z,16.00
2023-02-22T13:07:49.216Z,19.88
2023-02-22T13:11:02.090Z,15.10
2023-02-22T13:13:42.030Z,19.50
2023-02-22T13:16:15.070Z,15.85
2023-02-22T13:19:07.578Z,14.23
2023-02-22T13:22:00.039Z,18.33
2023-02-22T13:25:03.091Z,16.50
2023-02-22T13:27:59.329Z,16.05
2023-02-22T13:31:03.063Z,22.00
2023-02-22T13:33:55.103Z,29.42
2023-02-22T13:36:31.142Z,23.27
2023-02-22T13:39:07.082Z,27.50
2023-02-22T13:41:36.718Z,22.40
2023-02-22T13:44:16.277Z,19.90
2023-02-22T13:46:58.147Z,20.52
2023-02-22T13:49:53.092Z,21.17
2023-02-22T13:52:26.926Z,17.65
2023-02-22T13:55:05.084Z,18.75
2023-02-22T13:57:41.231Z,18.38
2023-02-22T14:00:27.055Z,20.55
2023-02-22T14:03:12.899Z,20.75
2023-02-22T14:05:46.147Z,23.48
2023-02-22T14:08:18.995Z,23.50
2023-02-22T14:11:03.125Z,24.25
2023-02-22T14:14:07.139Z,21.55
2023-02-22T14:16:42.142Z,22.88
2023-02-22T14:19:21.091Z,19.90
2023-02-22T14:22:03.415Z,20.92
2023-02-22T14:24:54.143Z,19.17
2023-02-22T14:27:27.222Z,20.95
2023-02-22T14:30:04.303Z,31.23
2023-02-22T14:32:34.287Z,26.52
2023-02-22T14:35:24.374Z,25.25
2023-02-22T14:37:57.673Z,25.42
2023-02-22T14:40:37.153Z,27.00
2023-02-22T14:43:14.960Z,28.92
2023-02-22T14:45:56.306Z,26.10
2023-02-22T14:48:45.375Z,23.63
2023-02-22T14:51:27.349Z,25.27
2023-02-22T14:54:10.127Z,21.60
2023-02-22T14:56:55.239Z,19.50
2023-02-22T14:59:27.164Z,25.23
2023-02-22T15:02:17.220Z,27.13
2023-02-22T15:04:52.065Z,27.27
2023-02-22T15:07:38.217Z,24.30
2023-02-22T15:10:20.576Z,21.17
2023-02-22T15:13:19.230Z,22.95
2023-02-22T15:16:01.354Z,22.52
2023-02-22T15:21:20.805Z,19.13
2023-02-22T15:23:59.235Z,27.75
2023-02-22T15:26:29.962Z,24.83
2023-02-22T15:29:06.324Z,24.92
2023-02-22T15:31:44.829Z,20.73
2023-02-22T15:34:20.078Z,23.08
2023-02-22T15:36:55.239Z,25.95
2023-02-22T15:39:33.174Z,26.63
2023-02-22T15:42:14.272Z,23.95
2023-02-22T15:44:49.268Z,22.88
2023-02-22T15:47:29.593Z,23.13
2023-02-22T15:50:29.288Z,24.42
2023-02-22T15:53:15.316Z,29.42
2023-02-22T15:55:53.601Z,29.75
2023-02-22T15:58:28.779Z,30.52
2023-02-22T16:01:12.362Z,29.95
2023-02-22T16:03:45.572Z,35.50
2023-02-22T16:06:35.389Z,28.67
2023-02-22T16:09:26.085Z,30.05
2023-02-22T16:12:28.324Z,26.55
2023-02-22T16:15:05.320Z,26.98
2023-02-22T16:17:49.402Z,36.03
2023-02-22T16:20:31.304Z,32.58
2023-02-22T16:22:58.380Z,32.00
2023-02-22T16:25:39.364Z,30.25
2023-02-22T16:28:36.162Z,33.10
2023-02-22T16:31:10.458Z,39.33
2023-02-22T16:33:39.975Z,43.70
2023-02-22T16:36:14.285Z,44.15
2023-02-22T16:38:43.726Z,45.92
2023-02-22T16:41:17.581Z,43.08
2023-02-22T16:43:47.018Z,48.65
2023-02-22T16:46:21.613Z,47.65
2023-02-22T16:48:48.474Z,47.95
2023-02-22T16:51:33.304Z,45.97
2023-02-22T16:54:06.340Z,48.17
2023-02-22T16:56:41.356Z,49.40
2023-02-22T16:59:14.150Z,49.95
2023-02-22T17:01:47.333Z,47.55
2023-02-22T17:04:29.390Z,53.03
2023-02-22T17:06:59.031Z,48.63
2023-02-22T17:09:33.424Z,51.75
2023-02-22T17:12:01.213Z,48.38
2023-02-22T17:14:41.388Z,51.95
2023-02-22T17:17:09.269Z,48.28
2023-02-22T17:19:37.658Z,51.85
2023-02-22T17:22:12.423Z,53.58
2023-02-22T17:24:45.421Z,50.50
2023-02-22T17:27:12.454Z,61.03
2023-02-22T17:29:47.377Z,67.53
2023-02-22T17:32:20.479Z,71.43
2023-02-22T17:34:47.279Z,72.75
2023-02-22T17:37:20.404Z,70.88
2023-02-22T17:39:50.205Z,76.95
2023-02-22T17:42:17.226Z,77.75
2023-02-22T17:44:50.401Z,70.50
2023-02-22T17:47:17.179Z,75.68
2023-02-22T17:49:50.485Z,74.72
2023-02-22T17:52:30.464Z,79.47
2023-02-22T17:55:03.438Z,73.18
2023-02-22T17:57:30.272Z,74.45
2023-02-22T18:00:05.459Z,72.85
2023-02-22T18:02:39.616Z,79.45
2023-02-22T18:05:14.443Z,85.88
2023-02-22T18:07:41.300Z,81.00
2023-02-22T18:10:11.878Z,81.32
2023-02-22T18:12:49.487Z,79.82
2023-02-22T18:15:17.555Z,72.63
2023-02-22T18:17:52.497Z,82.32
2023-02-22T18:20:30.987Z,87.07
2023-02-22T18:23:08.487Z,94.63
2023-02-22T18:25:43.518Z,92.82
2023-02-22T18:28:10.308Z,106.10
2023-02-22T18:30:47.527Z,98.35
2023-02-22T18:33:21.466Z,97.88
2023-02-22T18:35:58.518Z,94.82
2023-02-22T18:38:25.669Z,99.78
2023-02-22T18:41:10.501Z,98.30
2023-02-22T18:43:37.470Z,95.85
2023-02-22T18:46:14.645Z,87.18
2023-02-22T18:48:41.675Z,88.63
2023-02-22T18:51:18.543Z,86.25
2023-02-22T18:53:53.552Z,90.70
2023-02-22T18:56:24.806Z,86.57
2023-02-22T18:59:01.579Z,87.55
2023-02-22T19:01:29.980Z,91.03
2023-02-22T19:03:58.156Z,85.85
2023-02-22T19:06:46.561Z,82.07
2023-02-22T19:09:19.723Z,82.38
2023-02-22T19:11:54.626Z,80.88
2023-02-22T19:14:31.763Z,78.93
2023-02-22T19:17:01.533Z,75.63
2023-02-22T19:19:37.628Z,72.78
2023-02-22T19:22:04.552Z,85.72
2023-02-22T19:24:38.705Z,74.43
2023-02-22T19:27:06.445Z,77.88
2023-02-22T19:29:39.614Z,76.47
2023-02-22T19:32:08.313Z,77.93
2023-02-22T19:34:43.665Z,71.70
2023-02-22T19:37:18.685Z,72.10
2023-02-22T19:39:45.523Z,75.15
2023-02-22T19:42:18.647Z,72.07
2023-02-22T19:44:45.415Z,75.95
2023-02-22T19:47:12.191Z,67.32
2023-02-22T19:49:47.755Z,70.28
2023-02-22T19:52:14.700Z,71.38
2023-02-22T19:54:47.623Z,60.42
2023-02-22T19:57:20.633Z,68.13
2023-02-22T19:59:53.681Z,78.85
2023-02-22T20:02:22.941Z,74.13
2023-02-22T20:04:57.685Z,75.28
2023-02-22T20:07:24.564Z,73.72
2023-02-22T20:09:57.670Z,78.20
2023-02-22T20:12:30.906Z,79.80
2023-02-22T20:15:04.649Z,82.45
2023-02-22T20:17:44.660Z,78.15
2023-02-22T20:20:19.785Z,77.90
2023-02-22T20:22:46.824Z,78.57
2023-02-22T20:25:19.699Z,76.97
2023-02-22T20:27:46.685Z,77.25
2023-02-22T20:30:20.691Z,80.75
2023-02-22T20:32:47.659Z,79.40
2023-02-22T20:35:22.738Z,75.93
2023-02-22T20:37:59.159Z,76.60
2023-02-22T20:40:32.763Z,82.57
2023-02-22T20:43:06.698Z,79.07
2023-02-22T20:45:37.900Z,78.68
2023-02-22T20:48:11.752Z,80.93
2023-02-22T20:50:44.704Z,77.00
2023-02-22T20:53:12.731Z,78.63
2023-02-22T20:55:54.758Z,80.03
2023-02-22T20:58:22.993Z,69.95
2023-02-22T21:00:56.799Z,68.13
2023-02-22T21:03:29.750Z,62.35
2023-02-22T21:05:56.653Z,59.08
2023-02-22T21:08:29.769Z,52.95
2023-02-22T21:11:03.738Z,50.53
2023-02-22T21:13:37.792Z,57.10
2023-02-22T21:16:11.758Z,54.08
2023-02-22T21:18:44.846Z,57.42
2023-02-22T21:21:15.007Z,50.35
2023-02-22T21:23:48.875Z,59.45
2023-02-22T21:26:17.667Z,59.75
2023-02-22T21:28:52.062Z,71.38
2023-02-22T21:31:21.749Z,75.43
2023-02-22T21:34:00.778Z,72.22
2023-02-22T21:36:28.547Z,71.82
2023-02-22T21:39:04.862Z,62.97
2023-02-22T21:41:32.207Z,61.80
2023-02-22T21:43:59.584Z,78.50
2023-02-22T21:46:35.808Z,76.35
2023-02-22T21:49:02.681Z,72.97
2023-02-22T21:51:38.911Z,74.97
2023-02-22T21:54:08.324Z,67.95
2023-02-22T21:56:43.883Z,68.60
2023-02-22T21:59:18.808Z,66.43
2023-02-22T22:01:56.829Z,62.53
2023-02-22T22:04:27.465Z,64.70
2023-02-22T22:07:02.811Z,70.28
2023-02-22T22:09:32.926Z,69.13
2023-02-22T22:12:11.835Z,81.55
2023-02-22T22:14:44.846Z,81.32
2023-02-22T22:17:17.822Z,79.97
2023-02-22T22:19:46.164Z,79.57
2023-02-22T22:22:19.952Z,79.65
2023-02-22T22:24:48.580Z,67.38
2023-02-22T22:27:22.877Z,69.10
2023-02-22T22:29:51.741Z,64.00
2023-02-22T22:32:26.905Z,81.38
2023-02-22T22:34:56.431Z,60.83
2023-02-22T22:37:29.908Z,57.10
2023-02-22T22:39:58.373Z,59.80
2023-02-22T22:42:31.847Z,60.33
2023-02-22T22:45:04.927Z,48.65
2023-02-22T22:47:37.926Z,70.25
2023-02-22T22:50:07.220Z,56.22
2023-02-22T22:52:41.908Z,51.50
2023-02-22T22:55:12.635Z,44.67
2023-02-22T22:57:46.964Z,42.50
2023-02-22T23:00:34.255Z,46.17
2023-02-22T23:03:08.110Z,45.38
2023-02-22T23:05:42.352Z,48.88
2023-02-22T23:08:19.039Z,49.38
2023-02-22T23:10:47.464Z,48.88
2023-02-22T23:13:21.959Z,52.47
2023-02-22T23:15:55.969Z,57.75
2023-02-22T23:18:29.086Z,51.65
2023-02-22T23:21:11.959Z,59.80
2023-02-22T23:23:41.111Z,60.50
2023-02-22T23:26:24.959Z,51.53
2023-02-22T23:29:03.943Z,53.35
2023-02-22T23:31:32.086Z,77.25
2023-02-22T23:34:05.990Z,66.18
2023-02-22T23:36:32.708Z,63.97
2023-02-22T23:39:05.980Z,63.97
2023-02-22T23:41:39.027Z,60.85
2023-02-22T23:44:15.029Z,66.68
2023-02-22T23:46:54.939Z,63.75
2023-02-22T23:49:30.001Z,52.45
2023-02-22T23:52:05.871Z,49.60
2023-02-22T23:54:43.009Z,46.60
2023-02-22T23:57:12.285Z,47.47
2023-02-22T23:59:47.017Z,47.35
